createdAt,value
2023-05-10T00:02:24.789Z,100020.31
2023-05-10T00:05:09.903Z,100022.03
2023-05-10T00:07:54.706Z,100012.59
2023-05-10T00:10:40.108Z,100005.66
2023-05-10T00:13:25.244Z,100016.91
2023-05-10T00:16:10.838Z,100015.16
2023-05-10T00:18:56.177Z,100010.81
2023-05-10T00:21:41.540Z,100009.91
2023-05-10T00:24:26.904Z,100008.22
2023-05-10T00:27:11.846Z,99997.03
2023-05-10T00:29:56.707Z,100006.53
2023-05-10T00:32:41.860Z,99999.63
2023-05-10T00:35:27.137Z,99999.63
2023-05-10T00:38:11.965Z,100007.44
2023-05-10T00:40:56.691Z,99998.81
2023-05-10T00:43:42.289Z,100000.47
2023-05-10T00:46:27.714Z,100000.47
2023-05-10T00:49:13.310Z,99996.19
2023-05-10T00:51:58.999Z,99990.22
2023-05-10T00:54:44.024Z,99996.28
2023-05-10T00:57:29.359Z,100001.38
2023-05-10T01:00:15.764Z,99999.56
2023-05-10T01:03:02.198Z,100000.41
2023-05-10T01:05:47.449Z,99999.56
2023-05-10T01:08:33.247Z,100005.56
2023-05-10T01:11:18.341Z,99991.63
2023-05-10T01:14:04.379Z,99992.56
2023-05-10T01:16:50.748Z,99992.38
2023-05-10T01:19:36.259Z,100001.81
2023-05-10T01:22:42.935Z,99993.28
2023-05-10T01:25:27.850Z,99988.16
2023-05-10T01:28:50.536Z,99981.34
2023-05-10T01:32:17.113Z,99980.56
2023-05-10T01:35:05.440Z,99984.97
2023-05-10T01:38:00.467Z,99976.59
2023-05-10T01:41:04.004Z,99981.16
2023-05-10T01:44:02.508Z,99982.16
2023-05-10T01:46:54.133Z,99996.03
2023-05-10T01:49:46.535Z,100000.47
2023-05-10T01:52:36.464Z,100004.88
2023-05-10T01:55:25.129Z,100013.53
2023-05-10T01:58:14.158Z,100011.75
2023-05-10T02:01:02.321Z,100023.03
2023-05-10T02:03:50.833Z,100025.66
2023-05-10T02:06:37.551Z,100034.31
2023-05-10T02:09:24.845Z,100039.53
2023-05-10T02:12:10.409Z,100036.94
2023-05-10T02:14:56.966Z,100040.38
2023-05-10T02:17:43.423Z,100042.94
2023-05-10T02:20:29.129Z,100049.06
2023-05-10T02:23:16.324Z,100044.75
2023-05-10T02:26:03.236Z,100046.47
2023-05-10T02:28:49.576Z,100049.13
2023-05-10T02:31:36.182Z,100053.44
2023-05-10T02:34:27.847Z,100055.19
2023-05-10T02:37:15.455Z,100056.00
2023-05-10T02:40:02.200Z,100061.16
2023-05-10T02:42:49.929Z,100056.84
2023-05-10T02:45:37.320Z,100052.53
2023-05-10T02:48:22.595Z,100059.41
2023-05-10T02:51:09.250Z,100054.19
2023-05-10T02:53:56.029Z,100064.66
2023-05-10T02:56:48.005Z,100063.81
2023-05-10T02:59:33.440Z,100056.88
2023-05-10T03:02:19.202Z,100056.03
2023-05-10T03:05:04.641Z,100063.78
2023-05-10T03:07:50.721Z,100067.28
2023-05-10T03:11:11.776Z,100064.69
2023-05-10T03:14:08.418Z,100069.00
2023-05-10T03:17:01.363Z,100072.47
2023-05-10T03:20:04.910Z,100075.91
2023-05-10T03:22:56.806Z,100072.44
2023-05-10T03:25:43.174Z,100074.19
2023-05-10T03:28:28.870Z,100080.22
2023-05-10T03:31:14.737Z,100085.41
2023-05-10T03:33:59.826Z,100084.53
2023-05-10T03:36:45.189Z,100087.97
2023-05-10T03:39:30.537Z,100088.91
2023-05-10T03:42:15.915Z,100083.72
2023-05-10T03:45:01.395Z,100087.16
2023-05-10T03:47:46.557Z,100078.56
2023-05-10T03:50:32.083Z,100088.03
2023-05-10T03:53:17.740Z,100088.06
2023-05-10T03:56:03.187Z,100097.56
2023-05-10T03:58:48.394Z,100095.88
2023-05-10T04:01:35.002Z,100090.66
2023-05-10T04:04:20.262Z,100090.66
2023-05-10T04:07:05.661Z,100085.50
2023-05-10T04:09:50.978Z,100087.22
2023-05-10T04:12:36.496Z,100094.13
2023-05-10T04:15:21.762Z,100093.28
2023-05-10T04:18:08.651Z,100093.28
2023-05-10T04:20:54.058Z,100095.00
2023-05-10T04:23:39.419Z,100096.75
2023-05-10T04:26:24.550Z,100100.22
2023-05-10T04:29:09.686Z,100104.50
2023-05-10T04:31:55.701Z,100105.38
2023-05-10T04:34:40.513Z,100100.19
2023-05-10T04:37:25.992Z,100100.19
2023-05-10T04:40:11.458Z,100098.44
2023-05-10T04:42:56.624Z,100104.53
2023-05-10T04:45:42.036Z,100107.97
2023-05-10T04:48:26.798Z,100110.56
2023-05-10T04:51:12.211Z,100115.78
2023-05-10T04:54:06.161Z,100117.50
2023-05-10T04:56:51.739Z,100110.56
2023-05-10T04:59:37.370Z,100121.81
2023-05-10T05:02:22.507Z,100118.34
2023-05-10T05:05:08.454Z,100119.22
2023-05-10T05:07:53.399Z,100136.53
2023-05-10T05:10:38.727Z,100132.19
2023-05-10T05:13:24.109Z,100132.19
2023-05-10T05:16:09.793Z,100133.91
2023-05-10T05:18:54.935Z,100136.50
2023-05-10T05:21:40.772Z,100139.13
2023-05-10T05:24:25.843Z,100146.06
2023-05-10T05:27:10.901Z,100156.41
2023-05-10T05:29:57.160Z,100153.84
2023-05-10T05:32:42.566Z,100159.00
2023-05-10T05:35:27.875Z,100154.69
2023-05-10T05:38:13.271Z,100164.19
2023-05-10T05:40:58.733Z,100165.06
2023-05-10T05:43:44.078Z,100168.50
2023-05-10T05:46:29.352Z,100179.75
2023-05-10T05:49:14.234Z,100184.03
2023-05-10T05:52:00.863Z,100185.81
2023-05-10T05:54:46.346Z,100184.94
2023-05-10T05:57:31.682Z,100193.59
2023-05-10T06:00:17.214Z,100197.91
2023-05-10T06:03:02.265Z,100199.66
2023-05-10T06:05:47.774Z,100203.13
2023-05-10T06:08:32.950Z,100208.31
2023-05-10T06:11:18.300Z,100206.59
2023-05-10T06:14:05.044Z,100202.25
2023-05-10T06:16:50.783Z,100206.59
2023-05-10T06:19:35.868Z,100209.19
2023-05-10T06:22:21.458Z,100208.34
2023-05-10T06:25:07.171Z,100212.66
2023-05-10T06:27:53.893Z,100213.53
2023-05-10T06:30:39.077Z,100216.09
2023-05-10T06:33:24.321Z,100225.63
2023-05-10T06:36:09.271Z,100229.03
2023-05-10T06:38:54.567Z,100241.97
2023-05-10T06:41:39.944Z,100238.53
2023-05-10T06:44:25.483Z,100245.44
2023-05-10T06:47:10.835Z,100256.72
2023-05-10T06:49:56.432Z,100260.13
2023-05-10T06:52:41.774Z,100266.19
2023-05-10T06:55:27.512Z,100267.06
2023-05-10T06:58:12.910Z,100268.81
2023-05-10T07:01:03.559Z,100275.75
2023-05-10T07:03:48.601Z,100272.25
2023-05-10T07:06:34.131Z,100278.34
2023-05-10T07:09:19.465Z,100277.47
2023-05-10T07:12:05.107Z,100285.31
2023-05-10T07:14:50.303Z,100286.13
2023-05-10T07:17:35.610Z,100287.00
2023-05-10T07:20:20.962Z,100291.34
2023-05-10T07:23:06.271Z,100296.53
2023-05-10T07:25:52.331Z,100293.09
2023-05-10T07:28:37.482Z,100280.16
2023-05-10T07:31:23.077Z,100293.13
2023-05-10T07:34:08.515Z,100289.63
2023-05-10T07:36:54.076Z,100296.63
2023-05-10T07:39:39.356Z,100297.47
2023-05-10T07:42:24.859Z,100300.94
2023-05-10T07:45:10.544Z,100294.03
2023-05-10T07:47:55.623Z,100296.63
2023-05-10T07:50:41.013Z,100294.06
2023-05-10T07:53:27.468Z,100293.16
2023-05-10T07:56:27.368Z,100299.25
2023-05-10T07:59:16.583Z,100292.31
2023-05-10T08:02:02.032Z,100286.22
2023-05-10T08:04:47.339Z,100293.19
2023-05-10T08:07:33.369Z,100290.56
2023-05-10T08:10:18.396Z,100287.97
2023-05-10T08:13:03.930Z,100291.47
2023-05-10T08:15:49.251Z,100300.09
2023-05-10T08:18:34.670Z,100283.63
2023-05-10T08:21:20.099Z,100299.25
2023-05-10T08:24:05.832Z,100306.13
2023-05-10T08:26:51.112Z,100312.22
2023-05-10T08:29:48.844Z,100312.19
2023-05-10T08:32:34.577Z,100303.56
2023-05-10T08:35:19.861Z,100296.63
2023-05-10T08:38:05.160Z,100308.72
2023-05-10T08:40:50.603Z,100314.81
2023-05-10T08:43:36.877Z,100311.34
2023-05-10T08:46:23.626Z,100311.34
2023-05-10T08:49:11.987Z,100314.78
2023-05-10T08:51:58.552Z,100325.19
2023-05-10T08:54:43.728Z,100331.25
2023-05-10T08:57:28.950Z,100336.44
2023-05-10T09:00:14.694Z,100339.09
2023-05-10T09:03:00.643Z,100333.91
2023-05-10T09:05:46.383Z,100345.13
2023-05-10T09:08:32.066Z,100337.31
2023-05-10T09:11:17.318Z,100333.81
2023-05-10T09:14:02.855Z,100338.09
2023-05-10T09:16:48.347Z,100330.38
2023-05-10T09:19:33.264Z,100328.59
2023-05-10T09:22:18.757Z,100324.13
2023-05-10T09:25:15.484Z,100319.59
2023-05-10T09:28:01.128Z,100311.72
2023-05-10T09:30:54.390Z,100295.16
2023-05-10T09:33:46.666Z,100288.09
2023-05-10T09:36:32.174Z,100283.44
2023-05-10T09:39:18.114Z,100274.34
2023-05-10T09:42:08.650Z,100260.22
2023-05-10T09:44:54.353Z,100253.28
2023-05-10T09:47:39.725Z,100233.09
2023-05-10T09:50:26.897Z,100225.47
2023-05-10T09:53:16.666Z,100189.88
2023-05-10T09:56:01.762Z,100183.56
2023-05-10T09:58:47.250Z,100190.19
2023-05-10T10:01:34.027Z,100193.09
2023-05-10T10:04:20.918Z,100199.63
2023-05-10T10:07:06.151Z,100201.22
2023-05-10T10:09:52.409Z,100180.81
2023-05-10T10:12:37.583Z,100197.50
2023-05-10T10:15:23.533Z,100224.19
2023-05-10T10:18:13.257Z,100245.97
2023-05-10T10:20:59.145Z,100260.69
2023-05-10T10:23:44.600Z,100264.88
2023-05-10T10:26:32.135Z,100254.50
2023-05-10T10:29:27.339Z,100257.28
2023-05-10T10:32:25.558Z,100243.75
2023-05-10T10:35:10.968Z,100261.66
2023-05-10T10:37:56.693Z,100236.84
2023-05-10T10:40:42.254Z,100225.19
2023-05-10T10:43:28.719Z,100194.28
2023-05-10T10:46:16.073Z,100194.34
2023-05-10T10:49:11.269Z,100183.78
2023-05-10T10:52:15.418Z,100148.94
2023-05-10T10:55:01.987Z,100140.91
2023-05-10T10:57:52.834Z,100128.59
2023-05-10T11:00:38.556Z,100137.19
2023-05-10T11:03:23.787Z,100159.94
2023-05-10T11:06:08.725Z,100169.00
2023-05-10T11:08:53.705Z,100185.44
2023-05-10T11:11:55.739Z,100248.22
2023-05-10T11:14:41.102Z,100281.47
2023-05-10T11:17:28.256Z,100296.25
2023-05-10T11:20:16.181Z,100306.66
2023-05-10T11:23:15.729Z,100305.81
2023-05-10T11:26:01.850Z,100313.88
2023-05-10T11:28:49.231Z,100291.28
2023-05-10T11:31:34.474Z,100278.00
2023-05-10T11:34:27.545Z,100251.44
2023-05-10T11:37:12.763Z,100300.50
2023-05-10T11:39:57.682Z,100337.50
2023-05-10T11:42:42.581Z,100369.19
2023-05-10T11:45:27.716Z,100374.41
2023-05-10T11:48:12.849Z,100380.53
2023-05-10T11:50:58.559Z,100369.25
2023-05-10T11:53:43.712Z,100368.44
2023-05-10T11:56:29.157Z,100372.66
2023-05-10T11:59:15.364Z,100377.03
2023-05-10T12:02:00.490Z,100368.34
2023-05-10T12:04:46.049Z,100375.31
2023-05-10T12:07:31.119Z,100385.72
2023-05-10T12:10:16.467Z,100381.38
2023-05-10T12:13:01.913Z,100374.44
2023-05-10T12:15:47.044Z,100366.59
2023-05-10T12:18:32.291Z,100363.91
2023-05-10T12:21:19.050Z,100366.56
2023-05-10T12:24:04.846Z,100369.91
2023-05-10T12:26:51.208Z,100366.47
2023-05-10T12:29:36.189Z,100366.44
2023-05-10T12:32:21.163Z,100362.47
2023-05-10T12:35:07.495Z,100361.66
2023-05-10T12:37:52.557Z,100342.66
2023-05-10T12:40:38.554Z,100337.34
2023-05-10T12:43:23.762Z,100337.22
2023-05-10T12:46:14.495Z,100338.91
2023-05-10T12:49:08.530Z,100335.38
2023-05-10T12:51:54.273Z,100348.47
2023-05-10T12:54:39.579Z,100345.06
2023-05-10T12:57:24.594Z,100345.06
2023-05-10T13:00:10.444Z,100355.44
2023-05-10T13:02:55.833Z,100351.22
2023-05-10T13:05:41.245Z,100343.47
2023-05-10T13:08:26.536Z,100355.59
2023-05-10T13:11:12.141Z,100359.97
2023-05-10T13:13:57.671Z,100373.00
2023-05-10T13:16:44.376Z,100403.50
2023-05-10T13:19:29.828Z,100408.66
2023-05-10T13:22:17.205Z,100406.91
2023-05-10T13:25:06.173Z,100409.50
2023-05-10T13:27:51.068Z,100413.97
2023-05-10T13:30:36.198Z,100398.44
2023-05-10T13:33:21.445Z,100394.84
2023-05-10T13:36:07.353Z,100405.31
2023-05-10T13:38:52.375Z,100398.19
2023-05-10T13:41:37.864Z,100400.78
2023-05-10T13:44:22.586Z,100397.16
2023-05-10T13:47:07.992Z,100387.75
2023-05-10T13:49:53.379Z,100385.75
2023-05-10T13:52:38.131Z,100401.22
2023-05-10T13:55:23.119Z,100388.88
2023-05-10T13:58:08.525Z,100373.75
2023-05-10T14:00:54.109Z,100370.28
2023-05-10T14:03:39.325Z,100369.34
2023-05-10T14:06:24.863Z,100359.84
2023-05-10T14:09:10.280Z,100359.28
2023-05-10T14:11:55.817Z,100360.81
2023-05-10T14:14:41.350Z,100361.50
2023-05-10T14:17:26.224Z,100360.66
2023-05-10T14:20:12.259Z,100365.59
2023-05-10T14:22:57.362Z,100368.84
2023-05-10T14:25:43.030Z,100373.97
2023-05-10T14:28:28.190Z,100355.81
2023-05-10T14:31:13.563Z,100342.50
2023-05-10T14:33:58.629Z,100330.09
2023-05-10T14:36:43.962Z,100304.59
2023-05-10T14:39:29.149Z,100292.13
2023-05-10T14:42:14.350Z,100266.75
2023-05-10T14:44:59.304Z,100271.09
2023-05-10T14:47:44.940Z,100281.22
2023-05-10T14:50:35.787Z,100299.97
2023-05-10T14:53:21.940Z,100310.13
2023-05-10T14:56:07.042Z,100311.94
2023-05-10T14:58:52.492Z,100276.13
2023-05-10T15:01:38.464Z,100304.78
2023-05-10T15:04:23.774Z,100281.88
2023-05-10T15:07:09.666Z,100272.03
2023-05-10T15:09:55.690Z,100275.69
2023-05-10T15:12:40.969Z,100288.38
2023-05-10T15:15:26.521Z,100296.69
2023-05-10T15:18:11.635Z,100322.66
2023-05-10T15:20:56.964Z,100328.59
2023-05-10T15:23:42.364Z,100316.59
2023-05-10T15:26:27.177Z,100334.03
2023-05-10T15:29:12.773Z,100350.75
2023-05-10T15:31:57.666Z,100353.94
2023-05-10T15:34:42.996Z,100394.75
2023-05-10T15:37:28.119Z,100404.38
2023-05-10T15:40:13.456Z,100420.19
2023-05-10T15:42:58.964Z,100405.34
2023-05-10T15:45:44.701Z,100411.53
2023-05-10T15:48:29.997Z,100413.31
2023-05-10T15:51:15.289Z,100411.66
2023-05-10T15:54:07.263Z,100424.75
2023-05-10T15:56:53.379Z,100438.69
2023-05-10T15:59:38.339Z,100444.78
2023-05-10T16:02:23.406Z,100450.28
2023-05-10T16:05:09.703Z,100465.09
2023-05-10T16:07:55.015Z,100476.47
2023-05-10T16:10:40.283Z,100492.13
2023-05-10T16:13:25.984Z,100496.53
2023-05-10T16:16:11.101Z,100499.19
2023-05-10T16:18:58.521Z,100497.56
2023-05-10T16:21:43.967Z,100499.28
2023-05-10T16:24:29.142Z,100488.84
2023-05-10T16:27:14.456Z,100495.78
2023-05-10T16:29:59.738Z,100489.75
2023-05-10T16:32:44.610Z,100495.00
2023-05-10T16:35:30.369Z,100496.72
2023-05-10T16:38:15.410Z,100503.69
2023-05-10T16:41:04.155Z,100508.03
2023-05-10T16:43:49.380Z,100505.44
2023-05-10T16:46:34.786Z,100506.31
2023-05-10T16:49:20.658Z,100508.88
2023-05-10T16:52:05.702Z,100508.03
2023-05-10T16:54:50.566Z,100515.00
2023-05-10T16:57:35.938Z,100531.47
2023-05-10T17:00:20.936Z,100521.06
2023-05-10T17:03:06.475Z,100516.72
2023-05-10T17:05:51.756Z,100529.75
2023-05-10T17:08:36.595Z,100524.53
2023-05-10T17:11:21.494Z,100522.81
2023-05-10T17:14:07.048Z,100527.16
2023-05-10T17:16:52.544Z,100528.00
2023-05-10T17:19:37.633Z,100533.19
2023-05-10T17:22:23.086Z,100542.72
2023-05-10T17:25:08.723Z,100540.09
2023-05-10T17:27:53.790Z,100545.25
2023-05-10T17:30:38.596Z,100551.31
2023-05-10T17:33:24.007Z,100546.97
2023-05-10T17:36:09.207Z,100550.41
2023-05-10T17:38:54.568Z,100559.94
2023-05-10T17:41:40.359Z,100571.16
2023-05-10T17:44:25.631Z,100585.88
2023-05-10T17:47:10.676Z,100578.91
2023-05-10T17:49:55.585Z,100585.78
2023-05-10T17:52:41.056Z,100583.16
2023-05-10T17:55:25.869Z,100580.53
2023-05-10T17:58:12.233Z,100583.09
2023-05-10T18:00:57.843Z,100579.63
2023-05-10T18:03:42.974Z,100589.19
2023-05-10T18:06:28.462Z,100586.59
2023-05-10T18:09:13.765Z,100594.41
2023-05-10T18:11:59.227Z,100596.09
2023-05-10T18:14:44.667Z,100594.34
2023-05-10T18:17:29.763Z,100586.56
2023-05-10T18:20:15.041Z,100590.91
2023-05-10T18:23:00.382Z,100600.38
2023-05-10T18:25:45.547Z,100608.22
2023-05-10T18:28:30.937Z,100603.00
2023-05-10T18:31:16.439Z,100607.34
2023-05-10T18:34:02.004Z,100611.66
2023-05-10T18:36:47.314Z,100615.19
2023-05-10T18:39:32.443Z,100621.19
2023-05-10T18:42:17.517Z,100626.38
2023-05-10T18:45:03.141Z,100628.13
2023-05-10T18:47:48.326Z,100623.81
2023-05-10T18:50:33.816Z,100629.91
2023-05-10T18:53:19.197Z,100636.94
2023-05-10T18:56:04.598Z,100640.50
2023-05-10T18:58:49.796Z,100636.22
2023-05-10T19:01:34.922Z,100639.69
2023-05-10T19:04:20.321Z,100650.09
2023-05-10T19:07:05.777Z,100640.56
2023-05-10T19:09:51.173Z,100650.94
2023-05-10T19:12:36.495Z,100650.97
2023-05-10T19:15:22.035Z,100646.56
2023-05-10T19:18:09.073Z,100650.91
2023-05-10T19:20:54.784Z,100655.16
2023-05-10T19:23:40.172Z,100663.03
2023-05-10T19:26:24.953Z,100653.50
2023-05-10T19:29:09.737Z,100656.97
2023-05-10T19:31:55.256Z,100648.34
2023-05-10T19:34:40.771Z,100650.84
2023-05-10T19:37:25.523Z,100652.66
2023-05-10T19:40:12.260Z,100652.63
2023-05-10T19:42:57.377Z,100649.13
2023-05-10T19:45:43.007Z,100650.91
2023-05-10T19:48:29.096Z,100649.91
2023-05-10T19:51:16.363Z,100647.41
2023-05-10T19:54:01.434Z,100657.84
2023-05-10T19:56:46.724Z,100658.66
2023-05-10T19:59:32.127Z,100652.66
2023-05-10T20:02:17.509Z,100653.53
2023-05-10T20:05:02.876Z,100653.50
2023-05-10T20:07:48.045Z,100658.59
2023-05-10T20:10:33.268Z,100653.34
2023-05-10T20:13:18.783Z,100648.09
2023-05-10T20:16:04.020Z,100646.31
2023-05-10T20:18:49.394Z,100646.34
2023-05-10T20:21:34.433Z,100642.91
2023-05-10T20:24:19.762Z,100648.91
2023-05-10T20:27:05.278Z,100649.81
2023-05-10T20:29:50.575Z,100655.03
2023-05-10T20:32:36.676Z,100662.84
2023-05-10T20:35:21.747Z,100667.16
2023-05-10T20:38:07.131Z,100661.06
2023-05-10T20:40:52.569Z,100666.22
2023-05-10T20:43:37.874Z,100668.09
2023-05-10T20:46:23.641Z,100674.97
2023-05-10T20:49:09.234Z,100668.75
2023-05-10T20:51:55.826Z,100671.28
2023-05-10T20:54:41.010Z,100666.91
2023-05-10T20:57:26.486Z,100666.94
2023-05-10T21:00:12.240Z,100675.56
2023-05-10T21:02:57.454Z,100672.97
2023-05-10T21:05:42.812Z,100686.84
2023-05-10T21:08:28.146Z,100686.00
2023-05-10T21:11:13.472Z,100689.50
2023-05-10T21:13:59.178Z,100683.44
2023-05-10T21:16:44.283Z,100691.22
2023-05-10T21:19:29.701Z,100697.34
2023-05-10T21:22:15.195Z,100697.25
2023-05-10T21:25:00.496Z,100690.28
2023-05-10T21:27:45.359Z,100694.56
2023-05-10T21:30:32.544Z,100689.34
2023-05-10T21:33:17.847Z,100693.63
2023-05-10T21:36:03.872Z,100690.13
2023-05-10T21:38:49.238Z,100700.50
2023-05-10T21:41:34.644Z,100698.81
2023-05-10T21:44:19.571Z,100706.69
2023-05-10T21:47:05.309Z,100696.31
2023-05-10T21:49:50.362Z,100710.97
2023-05-10T21:52:36.360Z,100705.03
2023-05-10T21:55:21.701Z,100706.78
2023-05-10T21:58:06.813Z,100716.38
2023-05-10T22:00:52.280Z,100712.13
2023-05-10T22:03:37.875Z,100716.53
2023-05-10T22:06:23.146Z,100716.47
2023-05-10T22:09:08.125Z,100717.34
2023-05-10T22:11:53.365Z,100722.56
2023-05-10T22:14:38.846Z,100722.59
2023-05-10T22:17:24.174Z,100722.53
2023-05-10T22:20:09.856Z,100727.75
2023-05-10T22:22:55.387Z,100730.38
2023-05-10T22:25:40.773Z,100725.19
2023-05-10T22:28:26.113Z,100720.88
2023-05-10T22:31:12.152Z,100720.91
2023-05-10T22:33:57.484Z,100719.25
2023-05-10T22:36:43.030Z,100727.06
2023-05-10T22:39:28.366Z,100722.66
2023-05-10T22:42:13.515Z,100719.19
2023-05-10T22:44:58.932Z,100730.47
2023-05-10T22:47:44.352Z,100724.38
2023-05-10T22:50:30.344Z,100727.91
2023-05-10T22:53:15.906Z,100719.28
2023-05-10T22:56:01.389Z,100722.75
2023-05-10T22:58:46.682Z,100725.38
2023-05-10T23:01:32.139Z,100728.81
2023-05-10T23:04:17.562Z,100727.06
2023-05-10T23:07:02.879Z,100720.91
2023-05-10T23:09:48.353Z,100725.34
2023-05-10T23:12:33.734Z,100717.53
2023-05-10T23:15:19.221Z,100714.13
2023-05-10T23:18:04.534Z,100718.41
2023-05-10T23:20:49.879Z,100718.44
2023-05-10T23:23:34.852Z,100708.91
2023-05-10T23:26:20.110Z,100708.91
2023-05-10T23:29:05.043Z,100708.88
2023-05-10T23:31:50.441Z,100706.22
2023-05-10T23:34:36.321Z,100713.94
2023-05-10T23:37:21.321Z,100706.13
2023-05-10T23:40:07.612Z,100706.13
2023-05-10T23:42:53.394Z,100700.03
2023-05-10T23:45:38.532Z,100694.81
2023-05-10T23:48:24.231Z,100702.69
2023-05-10T23:51:09.343Z,100704.41
2023-05-10T23:53:54.532Z,100697.47
2023-05-10T23:56:39.777Z,100688.88
2023-05-10T23:59:25.390Z,100696.72
